sensor_id;sensor_type;location;lat;lon;timestamp;temperature;humidity
20442;DHT22;10380;52.102;20.614;2023-05-03T00:00:39;10.90;99.90
20442;DHT22;10380;52.102;20.614;2023-05-03T00:03:07;10.90;99.90
20442;DHT22;10380;52.102;20.614;2023-05-03T00:05:34;10.90;99.90
20442;DHT22;10380;52.102;20.614;2023-05-03T00:08:01;10.80;99.90
20442;DHT22;10380;52.102;20.614;2023-05-03T00:10:28;10.80;99.90
20442;DHT22;10380;52.102;20.614;2023-05-03T00:12:55;10.80;99.90
20442;DHT22;10380;52.102;20.614;2023-05-03T00:15:22;10.80;99.90
20442;DHT22;10380;52.102;20.614;2023-05-03T00:17:50;10.80;99.90
20442;DHT22;10380;52.102;20.614;2023-05-03T00:20:17;10.80;99.90
20442;DHT22;10380;52.102;20.614;2023-05-03T00:22:47;10.90;99.90
20442;DHT22;10380;52.102;20.614;2023-05-03T00:25:14;10.90;99.90
20442;DHT22;10380;52.102;20.614;2023-05-03T00:27:41;10.90;99.90
20442;DHT22;10380;52.102;20.614;2023-05-03T00:30:08;10.90;99.90
20442;DHT22;10380;52.102;20.614;2023-05-03T00:32:37;10.90;99.90
20442;DHT22;10380;52.102;20.614;2023-05-03T00:35:04;11.00;99.90
20442;DHT22;10380;52.102;20.614;2023-05-03T00:37:32;11.00;99.90
20442;DHT22;10380;52.102;20.614;2023-05-03T00:39:59;11.00;99.90
20442;DHT22;10380;52.102;20.614;2023-05-03T00:42:26;10.90;99.90
20442;DHT22;10380;52.102;20.614;2023-05-03T00:44:54;11.00;99.90
20442;DHT22;10380;52.102;20.614;2023-05-03T00:47:22;10.90;99.90
20442;DHT22;10380;52.102;20.614;2023-05-03T00:49:49;10.90;99.90
20442;DHT22;10380;52.102;20.614;2023-05-03T00:52:16;10.80;99.90
20442;DHT22;10380;52.102;20.614;2023-05-03T00:54:43;10.70;99.90
20442;DHT22;10380;52.102;20.614;2023-05-03T00:57:11;10.60;99.90
20442;DHT22;10380;52.102;20.614;2023-05-03T00:59:38;10.50;99.90
20442;DHT22;10380;52.102;20.614;2023-05-03T01:02:05;10.40;99.90
20442;DHT22;10380;52.102;20.614;2023-05-03T01:04:32;10.30;99.90
20442;DHT22;10380;52.102;20.614;2023-05-03T01:07:31;10.30;99.90
20442;DHT22;10380;52.102;20.614;2023-05-03T01:10:20;10.10;99.90
20442;DHT22;10380;52.102;20.614;2023-05-03T01:13:09;10.10;99.90
20442;DHT22;10380;52.102;20.614;2023-05-03T01:16:00;10.00;99.90
20442;DHT22;10380;52.102;20.614;2023-05-03T01:18:37;10.00;99.90
20442;DHT22;10380;52.102;20.614;2023-05-03T01:21:06;9.90;99.90
20442;DHT22;10380;52.102;20.614;2023-05-03T01:26:25;9.80;99.90
20442;DHT22;10380;52.102;20.614;2023-05-03T01:28:52;9.80;99.90
20442;DHT22;10380;52.102;20.614;2023-05-03T01:31:45;9.70;99.90
20442;DHT22;10380;52.102;20.614;2023-05-03T01:36:43;9.70;99.90
20442;DHT22;10380;52.102;20.614;2023-05-03T01:39:18;9.70;99.90
20442;DHT22;10380;52.102;20.614;2023-05-03T01:41:49;9.70;99.90
20442;DHT22;10380;52.102;20.614;2023-05-03T01:44:16;9.70;99.90
20442;DHT22;10380;52.102;20.614;2023-05-03T01:46:45;9.70;99.90
20442;DHT22;10380;52.102;20.614;2023-05-03T01:49:12;9.70;99.90
20442;DHT22;10380;52.102;20.614;2023-05-03T01:51:39;9.70;99.90
20442;DHT22;10380;52.102;20.614;2023-05-03T01:54:06;9.70;99.90
20442;DHT22;10380;52.102;20.614;2023-05-03T01:56:35;9.80;99.90
20442;DHT22;10380;52.102;20.614;2023-05-03T01:59:03;9.80;99.90
20442;DHT22;10380;52.102;20.614;2023-05-03T02:01:30;9.90;99.90
20442;DHT22;10380;52.102;20.614;2023-05-03T02:03:57;9.90;99.90
20442;DHT22;10380;52.102;20.614;2023-05-03T02:06:25;9.90;99.90
20442;DHT22;10380;52.102;20.614;2023-05-03T02:08:53;10.00;99.90
20442;DHT22;10380;52.102;20.614;2023-05-03T02:11:20;10.00;99.90
20442;DHT22;10380;52.102;20.614;2023-05-03T02:13:48;10.00;99.90
20442;DHT22;10380;52.102;20.614;2023-05-03T02:16:18;10.00;99.90
20442;DHT22;10380;52.102;20.614;2023-05-03T02:18:47;10.00;99.90
20442;DHT22;10380;52.102;20.614;2023-05-03T02:21:14;10.00;99.90
20442;DHT22;10380;52.102;20.614;2023-05-03T02:23:41;9.90;99.90
20442;DHT22;10380;52.102;20.614;2023-05-03T02:26:08;9.90;99.90
20442;DHT22;10380;52.102;20.614;2023-05-03T02:28:35;9.90;99.90
20442;DHT22;10380;52.102;20.614;2023-05-03T02:31:02;10.00;99.90
20442;DHT22;10380;52.102;20.614;2023-05-03T02:33:32;10.00;99.90
20442;DHT22;10380;52.102;20.614;2023-05-03T02:35:59;10.00;99.90
20442;DHT22;10380;52.102;20.614;2023-05-03T02:38:26;9.90;99.90
20442;DHT22;10380;52.102;20.614;2023-05-03T02:40:53;10.00;99.90
20442;DHT22;10380;52.102;20.614;2023-05-03T02:43:20;10.00;99.90
20442;DHT22;10380;52.102;20.614;2023-05-03T02:45:47;10.00;99.90
20442;DHT22;10380;52.102;20.614;2023-05-03T02:48:14;10.00;99.90
20442;DHT22;10380;52.102;20.614;2023-05-03T02:50:42;9.90;99.90
20442;DHT22;10380;52.102;20.614;2023-05-03T02:53:08;9.90;99.90
20442;DHT22;10380;52.102;20.614;2023-05-03T02:55:35;9.90;99.90
20442;DHT22;10380;52.102;20.614;2023-05-03T02:58:02;9.80;99.90
20442;DHT22;10380;52.102;20.614;2023-05-03T03:00:29;9.80;99.90
20442;DHT22;10380;52.102;20.614;2023-05-03T03:02:56;9.80;99.90
20442;DHT22;10380;52.102;20.614;2023-05-03T03:05:25;9.80;99.90
20442;DHT22;10380;52.102;20.614;2023-05-03T03:07:53;9.80;99.90
20442;DHT22;10380;52.102;20.614;2023-05-03T03:10:20;9.70;99.90
20442;DHT22;10380;52.102;20.614;2023-05-03T03:12:47;9.70;99.90
20442;DHT22;10380;52.102;20.614;2023-05-03T03:15:14;9.70;99.90
20442;DHT22;10380;52.102;20.614;2023-05-03T03:17:41;9.70;99.90
20442;DHT22;10380;52.102;20.614;2023-05-03T03:20:09;9.70;99.90
20442;DHT22;10380;52.102;20.614;2023-05-03T03:22:39;9.70;99.90
20442;DHT22;10380;52.102;20.614;2023-05-03T03:25:06;9.60;99.90
20442;DHT22;10380;52.102;20.614;2023-05-03T03:27:33;9.60;99.90
20442;DHT22;10380;52.102;20.614;2023-05-03T03:30:01;9.60;99.90
20442;DHT22;10380;52.102;20.614;2023-05-03T03:32:29;9.50;99.90
20442;DHT22;10380;52.102;20.614;2023-05-03T03:34:57;9.60;99.90
20442;DHT22;10380;52.102;20.614;2023-05-03T03:37:24;9.50;99.90
20442;DHT22;10380;52.102;20.614;2023-05-03T03:39:52;9.50;99.90
20442;DHT22;10380;52.102;20.614;2023-05-03T03:42:19;9.50;99.90
20442;DHT22;10380;52.102;20.614;2023-05-03T03:44:47;9.50;99.90
20442;DHT22;10380;52.102;20.614;2023-05-03T03:47:15;9.50;99.90
20442;DHT22;10380;52.102;20.614;2023-05-03T03:49:42;9.60;99.90
20442;DHT22;10380;52.102;20.614;2023-05-03T03:52:09;9.60;99.90
20442;DHT22;10380;52.102;20.614;2023-05-03T03:54:36;9.70;99.90
20442;DHT22;10380;52.102;20.614;2023-05-03T03:57:03;9.70;99.90
20442;DHT22;10380;52.102;20.614;2023-05-03T03:59:30;9.70;99.90
20442;DHT22;10380;52.102;20.614;2023-05-03T04:01:57;9.70;99.90
20442;DHT22;10380;52.102;20.614;2023-05-03T04:04:25;9.80;99.90
20442;DHT22;10380;52.102;20.614;2023-05-03T04:06:52;9.80;99.90
20442;DHT22;10380;52.102;20.614;2023-05-03T04:09:19;9.70;99.90
20442;DHT22;10380;52.102;20.614;2023-05-03T04:11:47;9.60;99.90
20442;DHT22;10380;52.102;20.614;2023-05-03T04:14:14;9.60;99.90
20442;DHT22;10380;52.102;20.614;2023-05-03T04:16:41;9.50;99.90
20442;DHT22;10380;52.102;20.614;2023-05-03T04:19:08;9.50;99.90
20442;DHT22;10380;52.102;20.614;2023-05-03T04:21:35;9.40;99.90
20442;DHT22;10380;52.102;20.614;2023-05-03T04:24:02;9.40;99.90
20442;DHT22;10380;52.102;20.614;2023-05-03T04:26:33;9.50;99.90
20442;DHT22;10380;52.102;20.614;2023-05-03T04:29:00;9.40;99.90
20442;DHT22;10380;52.102;20.614;2023-05-03T04:31:27;9.50;99.90
20442;DHT22;10380;52.102;20.614;2023-05-03T04:33:54;9.50;99.90
20442;DHT22;10380;52.102;20.614;2023-05-03T04:36:24;9.50;99.90
20442;DHT22;10380;52.102;20.614;2023-05-03T04:38:52;9.50;99.90
20442;DHT22;10380;52.102;20.614;2023-05-03T04:41:19;9.60;99.90
20442;DHT22;10380;52.102;20.614;2023-05-03T04:43:46;9.60;99.90
20442;DHT22;10380;52.102;20.614;2023-05-03T04:46:13;9.60;99.90
20442;DHT22;10380;52.102;20.614;2023-05-03T04:48:40;9.50;99.90
20442;DHT22;10380;52.102;20.614;2023-05-03T04:51:07;9.50;99.90
20442;DHT22;10380;52.102;20.614;2023-05-03T04:53:33;9.60;99.90
20442;DHT22;10380;52.102;20.614;2023-05-03T04:56:00;9.60;99.90
20442;DHT22;10380;52.102;20.614;2023-05-03T04:58:27;9.70;99.90
20442;DHT22;10380;52.102;20.614;2023-05-03T05:00:54;9.70;99.90
20442;DHT22;10380;52.102;20.614;2023-05-03T05:03:21;9.70;99.90
20442;DHT22;10380;52.102;20.614;2023-05-03T05:05:48;9.70;99.90
20442;DHT22;10380;52.102;20.614;2023-05-03T05:08:14;9.80;99.90
20442;DHT22;10380;52.102;20.614;2023-05-03T05:10:41;9.80;99.90
20442;DHT22;10380;52.102;20.614;2023-05-03T05:13:08;9.80;99.90
20442;DHT22;10380;52.102;20.614;2023-05-03T05:15:35;9.80;99.90
20442;DHT22;10380;52.102;20.614;2023-05-03T05:18:02;9.80;99.90
20442;DHT22;10380;52.102;20.614;2023-05-03T05:20:29;9.90;99.90
20442;DHT22;10380;52.102;20.614;2023-05-03T05:22:57;10.00;99.90
20442;DHT22;10380;52.102;20.614;2023-05-03T05:25:24;10.00;99.90
20442;DHT22;10380;52.102;20.614;2023-05-03T05:27:51;10.00;99.90
20442;DHT22;10380;52.102;20.614;2023-05-03T05:30:18;10.00;99.90
20442;DHT22;10380;52.102;20.614;2023-05-03T05:32:45;10.10;99.90
20442;DHT22;10380;52.102;20.614;2023-05-03T05:35:12;10.00;99.90
20442;DHT22;10380;52.102;20.614;2023-05-03T05:37:39;10.10;99.90
20442;DHT22;10380;52.102;20.614;2023-05-03T05:40:06;10.00;99.90
20442;DHT22;10380;52.102;20.614;2023-05-03T05:42:33;10.10;99.90
20442;DHT22;10380;52.102;20.614;2023-05-03T05:45:00;10.10;99.90
20442;DHT22;10380;52.102;20.614;2023-05-03T05:47:27;10.00;99.90
20442;DHT22;10380;52.102;20.614;2023-05-03T05:49:54;10.00;99.90
20442;DHT22;10380;52.102;20.614;2023-05-03T05:52:21;10.00;99.90
20442;DHT22;10380;52.102;20.614;2023-05-03T05:54:47;10.00;99.90
20442;DHT22;10380;52.102;20.614;2023-05-03T05:57:14;10.00;99.90
20442;DHT22;10380;52.102;20.614;2023-05-03T05:59:41;10.10;99.90
20442;DHT22;10380;52.102;20.614;2023-05-03T06:02:13;10.10;99.90
20442;DHT22;10380;52.102;20.614;2023-05-03T06:04:42;10.20;99.90
20442;DHT22;10380;52.102;20.614;2023-05-03T06:07:09;10.30;99.90
20442;DHT22;10380;52.102;20.614;2023-05-03T06:09:36;10.40;99.90
20442;DHT22;10380;52.102;20.614;2023-05-03T06:12:03;10.50;99.90
20442;DHT22;10380;52.102;20.614;2023-05-03T06:14:29;10.60;99.90
20442;DHT22;10380;52.102;20.614;2023-05-03T06:16:56;10.60;99.90
20442;DHT22;10380;52.102;20.614;2023-05-03T06:19:24;10.70;99.90
20442;DHT22;10380;52.102;20.614;2023-05-03T06:21:51;10.80;99.90
20442;DHT22;10380;52.102;20.614;2023-05-03T06:24:18;10.90;99.90
20442;DHT22;10380;52.102;20.614;2023-05-03T06:26:47;11.00;99.90
20442;DHT22;10380;52.102;20.614;2023-05-03T06:29:16;11.10;99.90
20442;DHT22;10380;52.102;20.614;2023-05-03T06:31:43;11.20;99.90
20442;DHT22;10380;52.102;20.614;2023-05-03T06:34:10;11.20;99.90
20442;DHT22;10380;52.102;20.614;2023-05-03T06:36:37;11.30;99.90
20442;DHT22;10380;52.102;20.614;2023-05-03T06:39:04;11.40;99.90
20442;DHT22;10380;52.102;20.614;2023-05-03T06:41:31;11.40;99.90
20442;DHT22;10380;52.102;20.614;2023-05-03T06:43:59;11.40;99.90
20442;DHT22;10380;52.102;20.614;2023-05-03T06:46:26;11.40;99.90
20442;DHT22;10380;52.102;20.614;2023-05-03T06:48:54;11.40;99.90
20442;DHT22;10380;52.102;20.614;2023-05-03T06:51:24;11.30;99.90
20442;DHT22;10380;52.102;20.614;2023-05-03T06:53:58;11.40;99.90
20442;DHT22;10380;52.102;20.614;2023-05-03T06:56:32;11.40;99.90
20442;DHT22;10380;52.102;20.614;2023-05-03T06:58:59;11.50;99.90
20442;DHT22;10380;52.102;20.614;2023-05-03T07:01:26;11.50;99.90
20442;DHT22;10380;52.102;20.614;2023-05-03T07:03:53;11.60;99.90
20442;DHT22;10380;52.102;20.614;2023-05-03T07:06:20;11.50;99.90
20442;DHT22;10380;52.102;20.614;2023-05-03T07:08:51;11.50;99.90
20442;DHT22;10380;52.102;20.614;2023-05-03T07:11:19;11.40;99.90
20442;DHT22;10380;52.102;20.614;2023-05-03T07:13:51;11.50;99.90
20442;DHT22;10380;52.102;20.614;2023-05-03T07:16:18;11.50;99.90
20442;DHT22;10380;52.102;20.614;2023-05-03T07:18:45;11.60;99.90
20442;DHT22;10380;52.102;20.614;2023-05-03T07:21:13;11.60;99.90
20442;DHT22;10380;52.102;20.614;2023-05-03T07:23:40;11.60;99.90
20442;DHT22;10380;52.102;20.614;2023-05-03T07:26:07;11.50;99.90
20442;DHT22;10380;52.102;20.614;2023-05-03T07:28:34;11.50;99.90
20442;DHT22;10380;52.102;20.614;2023-05-03T07:31:02;11.60;99.90
20442;DHT22;10380;52.102;20.614;2023-05-03T07:33:29;11.80;99.90
20442;DHT22;10380;52.102;20.614;2023-05-03T07:35:57;12.10;99.90
20442;DHT22;10380;52.102;20.614;2023-05-03T07:38:24;12.30;99.90
20442;DHT22;10380;52.102;20.614;2023-05-03T07:40:51;12.30;99.90
20442;DHT22;10380;52.102;20.614;2023-05-03T07:43:18;12.10;99.90
20442;DHT22;10380;52.102;20.614;2023-05-03T07:45:49;11.90;99.90
20442;DHT22;10380;52.102;20.614;2023-05-03T07:48:15;11.80;99.90
20442;DHT22;10380;52.102;20.614;2023-05-03T07:50:43;11.80;99.90
20442;DHT22;10380;52.102;20.614;2023-05-03T07:53:11;11.80;99.90
20442;DHT22;10380;52.102;20.614;2023-05-03T07:55:38;11.80;99.90
20442;DHT22;10380;52.102;20.614;2023-05-03T07:58:06;11.70;99.90
20442;DHT22;10380;52.102;20.614;2023-05-03T08:00:34;11.70;99.90
20442;DHT22;10380;52.102;20.614;2023-05-03T08:03:00;11.70;99.90
20442;DHT22;10380;52.102;20.614;2023-05-03T08:05:30;11.80;99.90
20442;DHT22;10380;52.102;20.614;2023-05-03T08:07:58;11.90;99.90
20442;DHT22;10380;52.102;20.614;2023-05-03T08:10:24;12.00;99.90
20442;DHT22;10380;52.102;20.614;2023-05-03T08:12:51;12.00;99.90
20442;DHT22;10380;52.102;20.614;2023-05-03T08:15:18;12.00;99.90
20442;DHT22;10380;52.102;20.614;2023-05-03T08:17:45;12.00;99.90
20442;DHT22;10380;52.102;20.614;2023-05-03T08:20:12;11.90;99.90
20442;DHT22;10380;52.102;20.614;2023-05-03T08:22:39;11.80;99.90
20442;DHT22;10380;52.102;20.614;2023-05-03T08:25:07;11.80;99.90
20442;DHT22;10380;52.102;20.614;2023-05-03T08:27:34;11.80;99.90
20442;DHT22;10380;52.102;20.614;2023-05-03T08:30:00;11.80;99.90
20442;DHT22;10380;52.102;20.614;2023-05-03T08:32:28;11.90;99.90
20442;DHT22;10380;52.102;20.614;2023-05-03T08:34:56;12.00;99.90
20442;DHT22;10380;52.102;20.614;2023-05-03T08:37:22;12.10;99.90
20442;DHT22;10380;52.102;20.614;2023-05-03T08:39:49;12.20;99.90
20442;DHT22;10380;52.102;20.614;2023-05-03T08:42:17;12.20;99.90
20442;DHT22;10380;52.102;20.614;2023-05-03T08:44:47;12.20;99.90
20442;DHT22;10380;52.102;20.614;2023-05-03T08:47:16;12.10;99.90
20442;DHT22;10380;52.102;20.614;2023-05-03T08:49:43;12.10;99.90
20442;DHT22;10380;52.102;20.614;2023-05-03T08:52:11;12.10;99.90
20442;DHT22;10380;52.102;20.614;2023-05-03T08:54:39;12.10;99.90
20442;DHT22;10380;52.102;20.614;2023-05-03T08:57:12;12.10;99.90
20442;DHT22;10380;52.102;20.614;2023-05-03T08:59:49;12.20;99.90
20442;DHT22;10380;52.102;20.614;2023-05-03T09:02:16;12.30;99.90
20442;DHT22;10380;52.102;20.614;2023-05-03T09:04:44;12.40;99.90
20442;DHT22;10380;52.102;20.614;2023-05-03T09:07:12;12.50;99.90
20442;DHT22;10380;52.102;20.614;2023-05-03T09:09:41;12.40;99.90
20442;DHT22;10380;52.102;20.614;2023-05-03T09:12:36;12.50;99.90
20442;DHT22;10380;52.102;20.614;2023-05-03T09:15:06;12.40;99.90
20442;DHT22;10380;52.102;20.614;2023-05-03T09:17:34;12.40;99.90
20442;DHT22;10380;52.102;20.614;2023-05-03T09:20:01;12.40;99.90
20442;DHT22;10380;52.102;20.614;2023-05-03T09:22:30;12.40;99.90
20442;DHT22;10380;52.102;20.614;2023-05-03T09:24:59;12.50;99.90
20442;DHT22;10380;52.102;20.614;2023-05-03T09:27:26;12.60;99.90
20442;DHT22;10380;52.102;20.614;2023-05-03T09:29:53;12.70;99.90
20442;DHT22;10380;52.102;20.614;2023-05-03T09:32:21;12.70;99.90
20442;DHT22;10380;52.102;20.614;2023-05-03T09:35:07;12.80;99.90
20442;DHT22;10380;52.102;20.614;2023-05-03T09:37:35;12.90;99.90
20442;DHT22;10380;52.102;20.614;2023-05-03T09:40:05;13.10;99.90
20442;DHT22;10380;52.102;20.614;2023-05-03T09:42:33;13.20;99.90
20442;DHT22;10380;52.102;20.614;2023-05-03T09:45:00;13.10;99.90
20442;DHT22;10380;52.102;20.614;2023-05-03T09:47:27;13.10;99.90
20442;DHT22;10380;52.102;20.614;2023-05-03T09:49:57;13.00;99.90
20442;DHT22;10380;52.102;20.614;2023-05-03T09:52:28;12.90;99.90
20442;DHT22;10380;52.102;20.614;2023-05-03T09:54:56;12.90;99.90
20442;DHT22;10380;52.102;20.614;2023-05-03T09:57:23;13.00;99.90
20442;DHT22;10380;52.102;20.614;2023-05-03T09:59:50;13.10;99.90
20442;DHT22;10380;52.102;20.614;2023-05-03T10:02:17;13.20;99.90
20442;DHT22;10380;52.102;20.614;2023-05-03T10:04:50;13.30;99.90
20442;DHT22;10380;52.102;20.614;2023-05-03T10:07:22;13.40;99.90
20442;DHT22;10380;52.102;20.614;2023-05-03T10:09:50;13.40;99.90
20442;DHT22;10380;52.102;20.614;2023-05-03T10:12:18;13.50;99.90
20442;DHT22;10380;52.102;20.614;2023-05-03T10:14:47;13.40;99.90
20442;DHT22;10380;52.102;20.614;2023-05-03T10:17:23;13.30;99.90
20442;DHT22;10380;52.102;20.614;2023-05-03T10:23:12;13.30;99.90
20442;DHT22;10380;52.102;20.614;2023-05-03T10:28:36;13.30;99.90
20442;DHT22;10380;52.102;20.614;2023-05-03T10:31:04;13.20;99.90
20442;DHT22;10380;52.102;20.614;2023-05-03T10:33:32;13.20;99.90
20442;DHT22;10380;52.102;20.614;2023-05-03T10:36:06;13.10;99.90
20442;DHT22;10380;52.102;20.614;2023-05-03T10:38:36;13.10;99.90
20442;DHT22;10380;52.102;20.614;2023-05-03T10:41:03;13.10;99.90
20442;DHT22;10380;52.102;20.614;2023-05-03T10:46:03;13.20;99.90
20442;DHT22;10380;52.102;20.614;2023-05-03T10:48:31;13.20;99.90
20442;DHT22;10380;52.102;20.614;2023-05-03T10:51:33;13.30;99.90
20442;DHT22;10380;52.102;20.614;2023-05-03T10:54:02;13.50;99.90
20442;DHT22;10380;52.102;20.614;2023-05-03T10:56:29;13.50;99.90
20442;DHT22;10380;52.102;20.614;2023-05-03T10:58:56;13.50;99.90
20442;DHT22;10380;52.102;20.614;2023-05-03T11:01:26;13.50;99.90
20442;DHT22;10380;52.102;20.614;2023-05-03T11:04:29;13.60;99.90
20442;DHT22;10380;52.102;20.614;2023-05-03T11:06:58;13.40;99.90
20442;DHT22;10380;52.102;20.614;2023-05-03T11:09:32;13.40;99.90
20442;DHT22;10380;52.102;20.614;2023-05-03T11:12:03;13.50;99.90
20442;DHT22;10380;52.102;20.614;2023-05-03T11:14:30;13.80;99.90
20442;DHT22;10380;52.102;20.614;2023-05-03T11:16:57;14.10;99.90
20442;DHT22;10380;52.102;20.614;2023-05-03T11:19:24;14.30;99.90
20442;DHT22;10380;52.102;20.614;2023-05-03T11:21:52;14.30;99.90
20442;DHT22;10380;52.102;20.614;2023-05-03T11:24:19;14.30;99.90
20442;DHT22;10380;52.102;20.614;2023-05-03T11:26:46;14.10;99.90
20442;DHT22;10380;52.102;20.614;2023-05-03T11:29:14;14.00;99.90
20442;DHT22;10380;52.102;20.614;2023-05-03T11:31:43;13.90;99.90
20442;DHT22;10380;52.102;20.614;2023-05-03T11:34:11;14.00;99.90
20442;DHT22;10380;52.102;20.614;2023-05-03T11:36:40;14.00;99.90
20442;DHT22;10380;52.102;20.614;2023-05-03T11:39:07;14.30;99.90
20442;DHT22;10380;52.102;20.614;2023-05-03T11:41:34;14.60;99.90
20442;DHT22;10380;52.102;20.614;2023-05-03T11:44:01;14.70;99.90
20442;DHT22;10380;52.102;20.614;2023-05-03T11:46:43;14.60;99.90
20442;DHT22;10380;52.102;20.614;2023-05-03T11:49:16;14.90;99.90
20442;DHT22;10380;52.102;20.614;2023-05-03T11:51:43;15.20;99.90
20442;DHT22;10380;52.102;20.614;2023-05-03T11:54:14;15.50;99.90
20442;DHT22;10380;52.102;20.614;2023-05-03T11:56:55;15.80;99.90
20442;DHT22;10380;52.102;20.614;2023-05-03T11:59:36;16.30;98.50
20442;DHT22;10380;52.102;20.614;2023-05-03T12:02:05;16.80;98.60
20442;DHT22;10380;52.102;20.614;2023-05-03T12:04:34;17.10;96.80
20442;DHT22;10380;52.102;20.614;2023-05-03T12:07:02;17.20;96.10
20442;DHT22;10380;52.102;20.614;2023-05-03T12:09:31;17.60;95.90
20442;DHT22;10380;52.102;20.614;2023-05-03T12:11:58;17.90;95.50
20442;DHT22;10380;52.102;20.614;2023-05-03T12:14:29;17.60;95.00
20442;DHT22;10380;52.102;20.614;2023-05-03T12:17:32;17.30;95.00
20442;DHT22;10380;52.102;20.614;2023-05-03T12:20:20;17.20;95.10
20442;DHT22;10380;52.102;20.614;2023-05-03T12:22:51;17.70;96.00
20442;DHT22;10380;52.102;20.614;2023-05-03T12:25:24;18.50;95.40
20442;DHT22;10380;52.102;20.614;2023-05-03T12:27:55;19.30;94.80
20442;DHT22;10380;52.102;20.614;2023-05-03T12:30:43;19.90;93.10
20442;DHT22;10380;52.102;20.614;2023-05-03T12:33:12;20.10;91.40
20442;DHT22;10380;52.102;20.614;2023-05-03T12:35:41;20.30;90.80
20442;DHT22;10380;52.102;20.614;2023-05-03T12:38:13;20.20;90.30
20442;DHT22;10380;52.102;20.614;2023-05-03T12:40:43;20.00;90.50
20442;DHT22;10380;52.102;20.614;2023-05-03T12:43:11;19.40;89.70
20442;DHT22;10380;52.102;20.614;2023-05-03T12:45:38;18.70;90.00
20442;DHT22;10380;52.102;20.614;2023-05-03T12:48:07;17.90;90.00
20442;DHT22;10380;52.102;20.614;2023-05-03T12:50:34;17.40;90.70
20442;DHT22;10380;52.102;20.614;2023-05-03T12:53:05;17.30;91.00
20442;DHT22;10380;52.102;20.614;2023-05-03T12:55:35;17.40;90.10
20442;DHT22;10380;52.102;20.614;2023-05-03T12:58:09;17.80;89.50
20442;DHT22;10380;52.102;20.614;2023-05-03T13:00:38;18.30;89.70
20442;DHT22;10380;52.102;20.614;2023-05-03T13:03:25;18.80;89.90
20442;DHT22;10380;52.102;20.614;2023-05-03T13:05:59;19.30;87.80
20442;DHT22;10380;52.102;20.614;2023-05-03T13:08:26;19.80;86.60
20442;DHT22;10380;52.102;20.614;2023-05-03T13:11:00;20.40;87.30
20442;DHT22;10380;52.102;20.614;2023-05-03T13:13:27;21.10;83.80
20442;DHT22;10380;52.102;20.614;2023-05-03T13:15:54;21.70;82.50
20442;DHT22;10380;52.102;20.614;2023-05-03T13:18:21;22.20;80.90
20442;DHT22;10380;52.102;20.614;2023-05-03T13:20:48;22.40;78.10
20442;DHT22;10380;52.102;20.614;2023-05-03T13:23:15;21.90;76.30
20442;DHT22;10380;52.102;20.614;2023-05-03T13:25:43;21.40;76.30
20442;DHT22;10380;52.102;20.614;2023-05-03T13:28:10;21.30;76.60
20442;DHT22;10380;52.102;20.614;2023-05-03T13:30:36;21.30;76.40
20442;DHT22;10380;52.102;20.614;2023-05-03T13:33:03;21.10;76.30
20442;DHT22;10380;52.102;20.614;2023-05-03T13:35:30;21.00;76.20
20442;DHT22;10380;52.102;20.614;2023-05-03T13:37:57;20.70;75.50
20442;DHT22;10380;52.102;20.614;2023-05-03T13:40:24;20.50;75.90
20442;DHT22;10380;52.102;20.614;2023-05-03T13:42:51;20.60;77.70
20442;DHT22;10380;52.102;20.614;2023-05-03T13:45:18;21.10;76.50
20442;DHT22;10380;52.102;20.614;2023-05-03T13:47:45;21.40;76.30
20442;DHT22;10380;52.102;20.614;2023-05-03T13:50:32;21.50;73.20
20442;DHT22;10380;52.102;20.614;2023-05-03T13:52:59;21.70;73.30
20442;DHT22;10380;52.102;20.614;2023-05-03T13:55:26;21.50;71.30
20442;DHT22;10380;52.102;20.614;2023-05-03T13:57:52;21.20;71.10
20442;DHT22;10380;52.102;20.614;2023-05-03T14:00:19;21.70;72.40
20442;DHT22;10380;52.102;20.614;2023-05-03T14:02:46;22.20;71.60
20442;DHT22;10380;52.102;20.614;2023-05-03T14:05:13;22.30;69.10
20442;DHT22;10380;52.102;20.614;2023-05-03T14:07:40;22.20;69.20
20442;DHT22;10380;52.102;20.614;2023-05-03T14:10:07;22.20;69.80
20442;DHT22;10380;52.102;20.614;2023-05-03T14:12:35;22.10;69.50
20442;DHT22;10380;52.102;20.614;2023-05-03T14:15:04;21.80;68.80
20442;DHT22;10380;52.102;20.614;2023-05-03T14:17:31;21.70;69.40
20442;DHT22;10380;52.102;20.614;2023-05-03T14:19:58;21.40;68.70
20442;DHT22;10380;52.102;20.614;2023-05-03T14:22:25;21.40;69.50
20442;DHT22;10380;52.102;20.614;2023-05-03T14:24:52;21.60;69.30
20442;DHT22;10380;52.102;20.614;2023-05-03T14:27:19;21.40;68.50
20442;DHT22;10380;52.102;20.614;2023-05-03T14:29:47;21.00;68.50
20442;DHT22;10380;52.102;20.614;2023-05-03T14:32:14;20.80;69.90
20442;DHT22;10380;52.102;20.614;2023-05-03T14:34:41;21.00;70.40
20442;DHT22;10380;52.102;20.614;2023-05-03T14:37:08;21.00;69.30
20442;DHT22;10380;52.102;20.614;2023-05-03T14:39:35;21.40;69.00
20442;DHT22;10380;52.102;20.614;2023-05-03T14:42:02;21.40;67.20
20442;DHT22;10380;52.102;20.614;2023-05-03T14:44:29;21.20;66.80
20442;DHT22;10380;52.102;20.614;2023-05-03T14:46:56;21.00;67.20
20442;DHT22;10380;52.102;20.614;2023-05-03T14:49:26;20.70;67.10
20442;DHT22;10380;52.102;20.614;2023-05-03T14:51:53;20.40;67.00
20442;DHT22;10380;52.102;20.614;2023-05-03T14:54:19;20.50;68.60
20442;DHT22;10380;52.102;20.614;2023-05-03T14:56:48;20.20;68.20
20442;DHT22;10380;52.102;20.614;2023-05-03T14:59:16;19.90;68.20
20442;DHT22;10380;52.102;20.614;2023-05-03T15:01:43;19.40;68.20
20442;DHT22;10380;52.102;20.614;2023-05-03T15:04:09;19.10;69.10
20442;DHT22;10380;52.102;20.614;2023-05-03T15:06:36;18.80;69.70
20442;DHT22;10380;52.102;20.614;2023-05-03T15:09:05;18.80;70.60
20442;DHT22;10380;52.102;20.614;2023-05-03T15:11:33;18.90;69.70
20442;DHT22;10380;52.102;20.614;2023-05-03T15:14:00;19.20;69.40
20442;DHT22;10380;52.102;20.614;2023-05-03T15:16:27;19.20;68.20
20442;DHT22;10380;52.102;20.614;2023-05-03T15:18:54;19.50;68.30
20442;DHT22;10380;52.102;20.614;2023-05-03T15:21:23;19.80;67.50
20442;DHT22;10380;52.102;20.614;2023-05-03T15:23:50;20.40;66.80
20442;DHT22;10380;52.102;20.614;2023-05-03T15:26:17;20.50;65.80
20442;DHT22;10380;52.102;20.614;2023-05-03T15:28:44;20.20;65.00
20442;DHT22;10380;52.102;20.614;2023-05-03T15:31:12;20.00;65.20
20442;DHT22;10380;52.102;20.614;2023-05-03T15:33:41;19.80;65.60
20442;DHT22;10380;52.102;20.614;2023-05-03T15:36:09;19.90;66.70
20442;DHT22;10380;52.102;20.614;2023-05-03T15:38:37;20.00;66.60
20442;DHT22;10380;52.102;20.614;2023-05-03T15:41:05;19.90;66.00
20442;DHT22;10380;52.102;20.614;2023-05-03T15:43:33;19.60;66.00